createdAt,value
2018-08-28T00:01:28.192Z,99.90
2018-08-28T00:03:56.545Z,99.90
2018-08-28T00:06:25.152Z,99.90
2018-08-28T00:08:53.499Z,99.90
2018-08-28T00:11:21.889Z,99.90
2018-08-28T00:13:50.233Z,99.90
2018-08-28T00:16:18.640Z,99.90
2018-08-28T00:18:46.991Z,99.90
2018-08-28T00:21:15.523Z,99.90
2018-08-28T00:23:43.985Z,99.90
2018-08-28T00:26:12.364Z,99.90
2018-08-28T00:28:40.741Z,99.90
2018-08-28T00:31:09.135Z,99.90
2018-08-28T00:33:37.519Z,99.90
2018-08-28T00:36:05.929Z,99.90
2018-08-28T00:38:34.289Z,99.90
2018-08-28T00:41:02.666Z,99.90
2018-08-28T00:43:31.005Z,99.90
2018-08-28T00:45:59.382Z,99.90
2018-08-28T00:48:27.714Z,99.90
2018-08-28T00:50:56.310Z,99.90
2018-08-28T00:53:24.639Z,99.90
2018-08-28T00:55:52.987Z,99.90
2018-08-28T00:58:21.343Z,99.90
2018-08-28T01:00:49.864Z,99.90
2018-08-28T01:03:18.233Z,99.90
2018-08-28T01:05:46.598Z,99.90
2018-08-28T01:08:15.024Z,99.90
2018-08-28T01:10:43.478Z,99.90
2018-08-28T01:13:11.871Z,99.90
2018-08-28T01:15:40.253Z,99.90
2018-08-28T01:18:08.635Z,99.90
2018-08-28T01:20:36.998Z,99.90
2018-08-28T01:23:05.443Z,99.90
2018-08-28T01:25:33.835Z,99.90
2018-08-28T01:28:02.188Z,99.90
2018-08-28T01:30:35.196Z,99.90
2018-08-28T01:33:05.213Z,99.90
2018-08-28T01:35:33.769Z,99.90
2018-08-28T01:38:02.152Z,99.90
2018-08-28T01:40:30.960Z,99.90
2018-08-28T01:42:59.835Z,99.90
2018-08-28T01:45:28.201Z,99.90
2018-08-28T01:47:56.602Z,99.90
2018-08-28T01:50:24.958Z,99.90
2018-08-28T01:52:53.287Z,99.90
2018-08-28T01:55:21.645Z,99.90
2018-08-28T01:57:49.973Z,99.90
2018-08-28T02:00:18.510Z,99.90
2018-08-28T02:02:46.862Z,99.90
2018-08-28T02:05:15.207Z,99.90
2018-08-28T02:07:43.609Z,99.90
2018-08-28T02:10:12.039Z,99.90
2018-08-28T02:12:40.530Z,99.90
2018-08-28T02:15:08.896Z,99.90
2018-08-28T02:17:37.280Z,99.90
2018-08-28T02:20:05.649Z,99.90
2018-08-28T02:22:33.978Z,99.90
2018-08-28T02:25:02.347Z,99.90
2018-08-28T02:27:30.685Z,99.90
2018-08-28T02:29:59.048Z,99.90
2018-08-28T02:32:27.362Z,99.90
2018-08-28T02:34:55.894Z,99.90
2018-08-28T02:37:24.213Z,99.90
2018-08-28T02:39:52.957Z,99.90
2018-08-28T02:42:21.294Z,99.90
2018-08-28T02:44:49.742Z,99.90
2018-08-28T02:47:18.085Z,99.90
2018-08-28T02:49:46.449Z,99.90
2018-08-28T02:52:14.788Z,99.90
2018-08-28T02:54:43.462Z,99.90
2018-08-28T02:57:11.814Z,99.90
2018-08-28T02:59:40.193Z,99.90
2018-08-28T03:02:08.564Z,99.90
2018-08-28T03:04:36.906Z,99.90
2018-08-28T03:07:05.254Z,99.90
2018-08-28T03:09:33.630Z,99.90
2018-08-28T03:12:01.980Z,99.90
2018-08-28T03:14:30.364Z,99.90
2018-08-28T03:16:58.661Z,99.90
2018-08-28T03:19:27.030Z,99.90
2018-08-28T03:21:55.401Z,99.90
2018-08-28T03:24:23.775Z,99.90
2018-08-28T03:26:52.154Z,99.90
2018-08-28T03:29:20.590Z,99.90
2018-08-28T03:31:49.010Z,99.90
2018-08-28T03:34:17.394Z,99.90
2018-08-28T03:36:45.774Z,99.90
2018-08-28T03:39:14.140Z,99.90
2018-08-28T03:41:42.530Z,99.90
2018-08-28T03:44:11.580Z,99.90
2018-08-28T03:46:40.030Z,99.90
2018-08-28T03:49:08.387Z,99.90
2018-08-28T03:51:36.726Z,99.90
2018-08-28T03:54:05.081Z,99.90
2018-08-28T03:56:33.519Z,99.90
2018-08-28T03:59:01.880Z,99.90
2018-08-28T04:01:30.294Z,99.90
2018-08-28T04:03:58.652Z,99.90
2018-08-28T04:06:27.016Z,99.90
2018-08-28T04:08:55.359Z,99.90
2018-08-28T04:11:23.704Z,99.90
2018-08-28T04:13:52.072Z,99.90
2018-08-28T04:16:21.382Z,99.90
2018-08-28T04:18:49.756Z,99.90
2018-08-28T04:21:18.091Z,99.90
2018-08-28T04:23:46.452Z,99.90
2018-08-28T04:26:14.798Z,99.90
2018-08-28T04:28:43.206Z,99.90
2018-08-28T04:31:11.553Z,99.90
2018-08-28T04:33:40.035Z,99.90
2018-08-28T04:36:08.392Z,99.90
2018-08-28T04:38:36.763Z,99.90
2018-08-28T04:41:05.180Z,99.90
2018-08-28T04:43:33.613Z,99.90
2018-08-28T04:46:01.960Z,99.90
2018-08-28T04:48:30.366Z,99.90
2018-08-28T04:50:58.690Z,99.90
2018-08-28T04:53:27.022Z,99.90
2018-08-28T04:55:55.395Z,99.90
2018-08-28T04:58:23.794Z,99.90
2018-08-28T05:00:52.413Z,99.90
2018-08-28T05:03:20.700Z,99.90
2018-08-28T05:05:49.031Z,99.90
2018-08-28T05:08:17.395Z,99.90
2018-08-28T05:10:45.738Z,99.90
2018-08-28T05:13:14.064Z,99.90
2018-08-28T05:15:42.430Z,99.90
2018-08-28T05:18:10.757Z,99.90
2018-08-28T05:20:39.145Z,99.90
2018-08-28T05:23:07.487Z,99.90
2018-08-28T05:25:35.869Z,99.90
2018-08-28T05:28:04.295Z,99.90
2018-08-28T05:30:33.171Z,99.90
2018-08-28T05:33:01.479Z,99.90
2018-08-28T05:35:29.838Z,99.90
2018-08-28T05:37:58.218Z,99.90
2018-08-28T05:40:26.558Z,99.90
2018-08-28T05:42:54.958Z,99.90
2018-08-28T05:45:23.319Z,99.90
2018-08-28T05:47:51.686Z,99.90
2018-08-28T05:50:20.022Z,99.90
2018-08-28T05:52:48.381Z,99.90
2018-08-28T05:55:16.765Z,99.90
2018-08-28T05:57:45.101Z,99.90
2018-08-28T06:00:13.878Z,99.90
2018-08-28T06:02:42.763Z,99.90
2018-08-28T06:05:11.159Z,99.90
2018-08-28T06:07:39.597Z,99.90
2018-08-28T06:10:08.340Z,99.90
2018-08-28T06:12:36.736Z,99.90
2018-08-28T06:15:05.191Z,99.90
2018-08-28T06:17:33.547Z,99.90
2018-08-28T06:20:01.873Z,99.90
2018-08-28T06:22:30.274Z,99.90
2018-08-28T06:24:58.643Z,99.90
2018-08-28T06:27:27.013Z,99.80
2018-08-28T06:29:55.394Z,99.90
2018-08-28T06:32:23.767Z,99.40
2018-08-28T06:34:52.149Z,98.60
2018-08-28T06:37:20.759Z,97.80
2018-08-28T06:39:49.078Z,97.30
2018-08-28T06:42:17.480Z,96.80
2018-08-28T06:44:46.070Z,97.20
2018-08-28T06:47:14.449Z,97.90
2018-08-28T06:49:42.855Z,98.30
2018-08-28T06:52:11.288Z,98.50
2018-08-28T06:54:39.685Z,98.20
2018-08-28T06:57:08.100Z,97.50
2018-08-28T06:59:36.502Z,96.90
2018-08-28T07:02:05.234Z,96.20
2018-08-28T07:04:33.609Z,95.10
2018-08-28T07:07:01.975Z,94.60
2018-08-28T07:09:30.383Z,93.60
2018-08-28T07:11:58.773Z,93.00
2018-08-28T07:14:27.146Z,92.30
2018-08-28T07:16:55.502Z,94.50
2018-08-28T07:19:23.853Z,95.10
2018-08-28T07:21:52.208Z,95.40
2018-08-28T07:24:20.585Z,96.30
2018-08-28T07:26:48.958Z,96.30
2018-08-28T07:29:17.343Z,95.80
2018-08-28T07:31:45.825Z,95.70
2018-08-28T07:34:14.169Z,95.90
2018-08-28T07:36:43.121Z,96.90
2018-08-28T07:39:11.468Z,98.30
2018-08-28T07:41:39.844Z,98.70
2018-08-28T07:44:08.319Z,98.60
2018-08-28T07:46:36.718Z,98.20
2018-08-28T07:49:05.099Z,96.40
2018-08-28T07:51:33.813Z,94.50
2018-08-28T07:54:02.273Z,92.70
2018-08-28T07:56:30.560Z,90.70
2018-08-28T07:58:58.924Z,89.10
2018-08-28T08:01:27.324Z,87.40
2018-08-28T08:03:55.603Z,85.40
2018-08-28T08:06:23.926Z,82.20
2018-08-28T08:08:52.286Z,79.50
2018-08-28T08:11:20.692Z,85.50
2018-08-28T08:13:49.059Z,90.50
2018-08-28T08:16:17.618Z,91.90
2018-08-28T08:18:46.146Z,90.40
2018-08-28T08:21:14.511Z,88.50
2018-08-28T08:23:42.869Z,87.50
2018-08-28T08:26:11.239Z,89.30
2018-08-28T08:28:39.643Z,90.30
2018-08-28T08:31:08.011Z,87.80
2018-08-28T08:33:36.346Z,84.60
2018-08-28T08:36:04.737Z,83.30
2018-08-28T08:38:33.054Z,82.60
2018-08-28T08:41:01.407Z,79.60
2018-08-28T08:43:29.759Z,76.30
2018-08-28T08:45:58.135Z,76.70
2018-08-28T08:48:26.482Z,75.70
2018-08-28T08:50:54.860Z,75.20
2018-08-28T08:53:23.264Z,75.50
2018-08-28T08:55:51.698Z,74.80
2018-08-28T08:58:20.447Z,74.50
2018-08-28T09:00:48.854Z,73.30
2018-08-28T09:03:17.335Z,70.00
2018-08-28T09:05:45.744Z,69.20
2018-08-28T09:08:14.124Z,68.20
2018-08-28T09:10:42.620Z,68.10
2018-08-28T09:13:10.943Z,69.20
2018-08-28T09:15:40.304Z,67.70
2018-08-28T09:18:08.733Z,67.00
2018-08-28T09:20:37.095Z,68.20
2018-08-28T09:23:05.523Z,70.20
2018-08-28T09:25:33.887Z,68.60
2018-08-28T09:28:02.235Z,66.80
2018-08-28T09:30:30.605Z,65.50
2018-08-28T09:32:58.950Z,68.00
2018-08-28T09:35:27.302Z,69.20
2018-08-28T09:37:55.687Z,68.80
2018-08-28T09:40:24.078Z,68.40
2018-08-28T09:42:52.668Z,67.40
2018-08-28T09:45:21.018Z,67.40
2018-08-28T09:47:49.416Z,66.10
2018-08-28T09:50:17.852Z,65.00
2018-08-28T09:52:46.142Z,64.60
2018-08-28T09:55:14.509Z,61.60
2018-08-28T09:57:42.930Z,64.00
2018-08-28T10:00:16.774Z,65.20
2018-08-28T10:02:45.955Z,67.80
2018-08-28T10:05:14.290Z,70.00
2018-08-28T10:07:42.686Z,72.80
2018-08-28T10:10:11.168Z,73.70
2018-08-28T10:12:39.514Z,75.20
2018-08-28T10:15:08.043Z,76.80
2018-08-28T10:17:36.388Z,79.00
2018-08-28T10:20:05.065Z,78.80
2018-08-28T10:22:33.518Z,81.20
2018-08-28T10:25:01.918Z,83.10
2018-08-28T10:27:30.290Z,83.60
2018-08-28T10:29:58.734Z,82.90
2018-08-28T10:32:26.987Z,83.40
2018-08-28T10:34:55.638Z,83.30
2018-08-28T10:37:24.043Z,83.70
2018-08-28T10:39:52.405Z,84.50
2018-08-28T10:42:20.762Z,83.50
2018-08-28T10:44:49.122Z,81.20
2018-08-28T10:47:17.487Z,79.40
2018-08-28T10:49:45.875Z,77.70
2018-08-28T10:52:14.255Z,74.70
2018-08-28T10:54:42.727Z,71.50
2018-08-28T10:57:11.105Z,68.70
2018-08-28T10:59:39.497Z,68.30
2018-08-28T11:02:07.891Z,68.50
2018-08-28T11:04:36.348Z,70.20
2018-08-28T11:07:04.674Z,71.50
2018-08-28T11:09:33.052Z,71.70
2018-08-28T11:12:01.395Z,68.70
2018-08-28T11:14:29.769Z,66.00
2018-08-28T11:16:58.121Z,66.90
2018-08-28T11:19:26.453Z,67.50
2018-08-28T11:21:54.862Z,68.50
2018-08-28T11:24:23.221Z,66.10
2018-08-28T11:26:51.595Z,64.40
2018-08-28T11:29:20.039Z,61.50
2018-08-28T11:31:48.446Z,61.20
2018-08-28T11:34:16.812Z,61.50
2018-08-28T11:36:45.384Z,61.80
2018-08-28T11:39:13.724Z,62.20
2018-08-28T11:41:42.101Z,62.30
2018-08-28T11:44:10.443Z,63.50
2018-08-28T11:46:38.781Z,65.60
2018-08-28T11:49:07.184Z,65.50
2018-08-28T11:51:35.604Z,62.70
2018-08-28T11:54:03.978Z,63.60
2018-08-28T11:56:32.338Z,64.20
2018-08-28T11:59:00.699Z,64.10
2018-08-28T12:01:29.136Z,63.80
2018-08-28T12:03:57.556Z,62.50
2018-08-28T12:06:25.927Z,61.40
2018-08-28T12:08:54.322Z,62.20
2018-08-28T12:11:22.652Z,63.30
2018-08-28T12:13:51.011Z,64.60
2018-08-28T12:16:19.363Z,64.50
2018-08-28T12:18:47.733Z,62.80
2018-08-28T12:21:16.099Z,63.30
2018-08-28T12:23:44.496Z,61.50
2018-08-28T12:26:12.817Z,59.30
2018-08-28T12:28:41.186Z,57.50
2018-08-28T12:31:09.571Z,57.40
2018-08-28T12:33:38.009Z,56.50
2018-08-28T12:36:06.374Z,55.50
2018-08-28T12:38:34.747Z,56.00
2018-08-28T12:41:03.106Z,56.80
2018-08-28T12:43:31.512Z,57.70
2018-08-28T12:45:59.934Z,59.30
2018-08-28T12:48:28.340Z,59.30
2018-08-28T12:50:56.689Z,60.00
2018-08-28T12:53:25.034Z,58.80
2018-08-28T12:55:53.426Z,60.00
2018-08-28T12:58:21.773Z,59.80
2018-08-28T13:00:50.180Z,58.90
2018-08-28T13:03:18.519Z,59.20
2018-08-28T13:05:46.897Z,59.10
2018-08-28T13:08:15.281Z,58.80
2018-08-28T13:10:43.973Z,57.60
2018-08-28T13:13:12.327Z,56.10
2018-08-28T13:15:40.706Z,56.80
2018-08-28T13:18:09.204Z,57.30
2018-08-28T13:20:37.604Z,59.00
2018-08-28T13:23:06.069Z,58.50
2018-08-28T13:25:34.581Z,60.30
2018-08-28T13:28:02.784Z,61.10
2018-08-28T13:30:31.147Z,58.60
2018-08-28T13:32:59.506Z,57.90
2018-08-28T13:35:28.043Z,57.90
2018-08-28T13:37:56.487Z,57.50
2018-08-28T13:40:24.953Z,58.40
2018-08-28T13:42:53.175Z,56.50
2018-08-28T13:45:21.598Z,54.50
2018-08-28T13:47:49.955Z,53.90
2018-08-28T13:50:18.870Z,53.40
2018-08-28T13:52:47.252Z,52.90
2018-08-28T13:55:15.787Z,53.80
2018-08-28T13:57:44.238Z,54.10
2018-08-28T14:00:12.682Z,52.90
2018-08-28T14:02:40.994Z,53.30
2018-08-28T14:05:09.407Z,52.70
2018-08-28T14:07:37.792Z,53.50
2018-08-28T14:10:06.465Z,53.60
2018-08-28T14:12:34.814Z,53.40
2018-08-28T14:15:03.388Z,54.00
2018-08-28T14:17:31.591Z,53.70
2018-08-28T14:19:59.949Z,53.40
2018-08-28T14:22:28.323Z,54.90
2018-08-28T14:24:56.655Z,53.00
2018-08-28T14:27:25.111Z,52.70
2018-08-28T14:29:53.460Z,52.90
2018-08-28T14:32:21.869Z,52.90
2018-08-28T14:34:50.250Z,52.20
2018-08-28T14:37:18.634Z,52.50
2018-08-28T14:39:47.018Z,52.80
2018-08-28T14:42:15.369Z,54.70
2018-08-28T14:44:43.734Z,53.70
2018-08-28T14:47:12.115Z,52.90
2018-08-28T14:49:40.553Z,53.50
2018-08-28T14:52:08.825Z,53.00
2018-08-28T14:54:37.195Z,53.60
2018-08-28T14:57:05.594Z,54.70
2018-08-28T14:59:33.981Z,55.10
2018-08-28T15:02:02.355Z,55.30
2018-08-28T15:04:30.750Z,54.50
2018-08-28T15:06:59.274Z,53.90
2018-08-28T15:09:27.590Z,54.10
2018-08-28T15:11:55.940Z,54.30
2018-08-28T15:14:24.309Z,54.20
2018-08-28T15:16:52.655Z,55.00
2018-08-28T15:19:21.003Z,53.70
2018-08-28T15:21:49.347Z,54.30
2018-08-28T15:24:17.677Z,54.60
2018-08-28T15:26:50.395Z,54.50
2018-08-28T15:29:18.737Z,54.10
2018-08-28T15:31:47.252Z,55.80
2018-08-28T15:34:15.679Z,55.80
2018-08-28T15:36:44.062Z,57.20
2018-08-28T15:39:12.407Z,56.10
2018-08-28T15:41:40.766Z,56.20
2018-08-28T15:44:09.099Z,55.80
2018-08-28T15:46:37.672Z,55.30
2018-08-28T15:49:06.033Z,55.40
2018-08-28T15:51:34.478Z,55.40
2018-08-28T15:54:02.726Z,55.40
2018-08-28T15:56:31.119Z,56.10
2018-08-28T15:59:00.347Z,56.20
2018-08-28T16:01:28.702Z,57.30
2018-08-28T16:03:57.047Z,58.20
2018-08-28T16:06:25.393Z,59.20
2018-08-28T16:08:53.761Z,59.40
2018-08-28T16:11:22.103Z,58.50
2018-08-28T16:13:50.471Z,58.00
2018-08-28T16:16:18.836Z,58.00
2018-08-28T16:18:47.190Z,58.20
2018-08-28T16:21:15.543Z,58.50
2018-08-28T16:23:45.701Z,57.90
2018-08-28T16:26:13.993Z,58.10
2018-08-28T16:28:42.335Z,57.60
2018-08-28T16:31:10.662Z,58.20
2018-08-28T16:33:39.002Z,58.40
2018-08-28T16:36:07.455Z,59.40
2018-08-28T16:38:35.863Z,58.60
2018-08-28T16:41:04.233Z,59.10
2018-08-28T16:43:32.599Z,60.10
2018-08-28T16:46:00.975Z,60.40
2018-08-28T16:48:29.410Z,60.60
2018-08-28T16:50:57.781Z,60.30
2018-08-28T16:53:26.125Z,60.90
2018-08-28T16:55:54.559Z,61.20
2018-08-28T16:58:22.910Z,61.20
2018-08-28T17:00:51.294Z,61.10
2018-08-28T17:03:19.727Z,61.00
2018-08-28T17:05:48.327Z,61.10
2018-08-28T17:08:16.752Z,62.10
2018-08-28T17:10:45.828Z,63.30
2018-08-28T17:13:14.166Z,62.70
2018-08-28T17:15:42.562Z,63.50
2018-08-28T17:18:10.990Z,62.60
2018-08-28T17:20:39.469Z,63.20
2018-08-28T17:23:07.878Z,64.10
2018-08-28T17:25:36.305Z,63.80
2018-08-28T17:28:04.745Z,63.90
2018-08-28T17:30:33.621Z,64.20
2018-08-28T17:33:01.981Z,65.50
2018-08-28T17:35:30.380Z,64.70
2018-08-28T17:37:58.710Z,64.70
2018-08-28T17:40:27.093Z,65.40
2018-08-28T17:42:55.448Z,66.60
2018-08-28T17:45:23.852Z,66.30
2018-08-28T17:47:52.225Z,67.50
2018-08-28T17:50:20.576Z,66.80
2018-08-28T17:52:48.930Z,67.70
2018-08-28T17:55:17.349Z,68.50
2018-08-28T17:57:45.801Z,68.00
2018-08-28T18:00:14.186Z,69.20
2018-08-28T18:02:42.562Z,68.20
2018-08-28T18:05:11.003Z,68.90
2018-08-28T18:07:39.546Z,69.90
2018-08-28T18:10:08.023Z,70.00
2018-08-28T18:12:36.434Z,69.50
2018-08-28T18:15:05.083Z,70.20
2018-08-28T18:17:33.463Z,70.50
2018-08-28T18:20:01.837Z,71.40
2018-08-28T18:22:30.334Z,73.00
2018-08-28T18:24:59.075Z,71.70
2018-08-28T18:27:27.506Z,73.50
2018-08-28T18:29:55.915Z,73.70
2018-08-28T18:32:24.335Z,74.50
2018-08-28T18:34:52.704Z,75.20
2018-08-28T18:37:21.132Z,74.30
2018-08-28T18:39:49.512Z,74.30
2018-08-28T18:42:17.926Z,74.40
2018-08-28T18:44:46.485Z,75.00
2018-08-28T18:47:14.891Z,76.40
2018-08-28T18:49:43.246Z,76.50
2018-08-28T18:52:11.644Z,76.40
2018-08-28T18:54:40.094Z,78.10
2018-08-28T18:57:08.468Z,79.70
2018-08-28T18:59:36.861Z,79.50
2018-08-28T19:02:05.315Z,80.20
2018-08-28T19:04:33.708Z,80.60
2018-08-28T19:07:02.196Z,80.70
2018-08-28T19:09:30.645Z,82.10
2018-08-28T19:11:59.094Z,81.70
2018-08-28T19:14:27.648Z,80.70
2018-08-28T19:16:56.042Z,82.00
2018-08-28T19:19:24.543Z,82.80
2018-08-28T19:21:52.978Z,82.30
2018-08-28T19:24:21.361Z,82.60
2018-08-28T19:26:49.736Z,83.80
2018-08-28T19:29:18.115Z,83.70
2018-08-28T19:31:46.531Z,84.10
2018-08-28T19:34:14.896Z,84.20
2018-08-28T19:36:43.308Z,84.70
2018-08-28T19:39:11.694Z,85.20
2018-08-28T19:41:40.131Z,86.40
2018-08-28T19:44:08.501Z,86.60
2018-08-28T19:46:36.997Z,86.90
2018-08-28T19:49:05.527Z,87.70
2018-08-28T19:51:34.003Z,88.60
2018-08-28T19:54:02.448Z,89.40
2018-08-28T19:56:30.934Z,89.60
2018-08-28T19:58:59.452Z,90.00
2018-08-28T20:01:27.827Z,90.10
2018-08-28T20:03:56.302Z,90.50
2018-08-28T20:06:24.625Z,90.80
2018-08-28T20:08:53.348Z,90.90
2018-08-28T20:11:21.845Z,91.20
2018-08-28T20:13:50.417Z,91.70
2018-08-28T20:16:18.858Z,91.90
2018-08-28T20:18:47.593Z,92.20
2018-08-28T20:21:16.741Z,92.30
2018-08-28T20:23:45.109Z,92.70
2018-08-28T20:26:13.519Z,92.90
2018-08-28T20:28:42.128Z,93.30
2018-08-28T20:31:10.495Z,93.20
2018-08-28T20:33:38.869Z,93.30
2018-08-28T20:36:07.470Z,93.90
2018-08-28T20:38:35.886Z,93.90
2018-08-28T20:41:04.390Z,94.00
2018-08-28T20:43:32.917Z,94.00
2018-08-28T20:46:01.413Z,94.00
2018-08-28T20:48:29.864Z,94.20
2018-08-28T20:50:58.262Z,94.50
2018-08-28T20:53:26.982Z,94.40
2018-08-28T20:55:55.431Z,94.50
2018-08-28T20:58:23.982Z,95.00
2018-08-28T21:00:52.409Z,95.30
2018-08-28T21:03:20.848Z,95.80
2018-08-28T21:05:49.433Z,95.60
2018-08-28T21:08:17.806Z,95.50
2018-08-28T21:10:46.733Z,95.30
2018-08-28T21:13:15.067Z,95.60
2018-08-28T21:15:43.481Z,95.60
2018-08-28T21:18:11.855Z,95.50
2018-08-28T21:20:40.287Z,95.50
2018-08-28T21:23:13.238Z,96.00
2018-08-28T21:25:41.591Z,96.30
2018-08-28T21:28:09.947Z,96.50
2018-08-28T21:30:38.384Z,96.50
2018-08-28T21:33:06.866Z,96.40
2018-08-28T21:35:35.320Z,96.40
2018-08-28T21:38:04.664Z,96.60
2018-08-28T21:40:33.018Z,96.90
2018-08-28T21:43:02.306Z,97.20
2018-08-28T21:45:30.675Z,97.30
2018-08-28T21:47:59.763Z,97.60
2018-08-28T21:50:28.492Z,97.90
2018-08-28T21:52:57.270Z,98.20
2018-08-28T21:55:25.968Z,98.50
2018-08-28T21:57:54.979Z,99.00
2018-08-28T22:00:23.823Z,98.70
2018-08-28T22:02:52.985Z,98.80
2018-08-28T22:05:29.711Z,99.00
2018-08-28T22:08:03.572Z,99.30
2018-08-28T22:10:32.807Z,99.40
2018-08-28T22:13:01.670Z,99.50
2018-08-28T22:15:30.112Z,99.50
2018-08-28T22:17:58.526Z,99.50
2018-08-28T22:20:26.914Z,99.60
2018-08-28T22:22:55.267Z,99.70
2018-08-28T22:25:23.660Z,99.90
2018-08-28T22:27:52.043Z,99.90
2018-08-28T22:30:20.446Z,99.90
2018-08-28T22:32:49.090Z,99.90
2018-08-28T22:35:17.453Z,99.90
2018-08-28T22:37:45.838Z,99.90
2018-08-28T22:40:14.225Z,99.90
2018-08-28T22:42:42.580Z,99.90
2018-08-28T22:45:10.956Z,99.90
2018-08-28T22:47:39.281Z,99.90
2018-08-28T22:50:07.698Z,99.90
2018-08-28T22:52:36.399Z,99.90
2018-08-28T22:55:04.819Z,99.90
2018-08-28T22:57:33.303Z,99.90
2018-08-28T23:00:01.712Z,99.90
2018-08-28T23:02:30.132Z,99.90
2018-08-28T23:04:58.489Z,99.90
2018-08-28T23:07:26.910Z,99.90
2018-08-28T23:09:55.288Z,99.90
2018-08-28T23:12:23.754Z,99.90
2018-08-28T23:14:52.702Z,99.90
2018-08-28T23:17:21.052Z,99.90
2018-08-28T23:19:49.407Z,99.90
2018-08-28T23:22:17.775Z,99.90
2018-08-28T23:24:46.119Z,99.90
2018-08-28T23:27:14.500Z,99.90
2018-08-28T23:29:42.816Z,99.90
2018-08-28T23:32:11.285Z,99.90
2018-08-28T23:34:39.661Z,99.90
2018-08-28T23:37:08.002Z,99.90
2018-08-28T23:39:36.384Z,99.90
2018-08-28T23:42:04.783Z,99.90
2018-08-28T23:44:33.190Z,99.90
2018-08-28T23:47:01.548Z,99.90
2018-08-28T23:49:29.893Z,99.90
2018-08-28T23:51:58.398Z,99.90
2018-08-28T23:54:26.778Z,99.90
2018-08-28T23:56:55.088Z,99.90
2018-08-28T23:59:23.445Z,99.90
